createdAt,value
2022-10-14T00:01:23.310Z,10.57
2022-10-14T00:04:03.146Z,10.73
2022-10-14T00:06:32.508Z,10.55
2022-10-14T00:09:03.835Z,11.23
2022-10-14T00:11:32.906Z,11.93
2022-10-14T00:14:05.208Z,10.90
2022-10-14T00:16:37.825Z,10.02
2022-10-14T00:19:06.229Z,10.93
2022-10-14T00:21:35.100Z,11.32
2022-10-14T00:24:02.363Z,9.88
2022-10-14T00:26:33.347Z,11.80
2022-10-14T00:29:02.106Z,12.88
2022-10-14T00:31:33.037Z,11.52
2022-10-14T00:34:01.023Z,11.27
2022-10-14T00:36:28.180Z,11.50
2022-10-14T00:38:56.563Z,11.38
2022-10-14T00:41:27.900Z,11.60
2022-10-14T00:44:01.146Z,11.25
2022-10-14T00:46:35.114Z,11.70
2022-10-14T00:49:11.820Z,11.88
2022-10-14T00:51:41.280Z,11.32
2022-10-14T00:54:09.846Z,11.32
2022-10-14T00:56:37.555Z,11.18
2022-10-14T00:59:09.528Z,11.02
2022-10-14T01:01:36.912Z,11.48
2022-10-14T01:04:05.021Z,11.57
2022-10-14T01:06:48.202Z,11.32
2022-10-14T01:09:54.470Z,11.27
2022-10-14T01:12:50.285Z,11.60
2022-10-14T01:15:26.396Z,12.02
2022-10-14T01:18:24.367Z,10.95
2022-10-14T01:21:22.488Z,11.57
2022-10-14T01:24:18.408Z,12.48
2022-10-14T01:27:10.202Z,13.07
2022-10-14T01:30:01.351Z,11.70
2022-10-14T01:32:50.855Z,13.57
2022-10-14T01:35:31.266Z,12.82
2022-10-14T01:38:03.573Z,12.88
2022-10-14T01:40:50.299Z,13.27
2022-10-14T01:43:22.990Z,12.40
2022-10-14T01:45:52.137Z,13.98
2022-10-14T01:48:24.852Z,13.60
2022-10-14T01:50:54.930Z,14.35
2022-10-14T01:53:26.258Z,14.27
2022-10-14T01:55:55.799Z,15.70
2022-10-14T01:58:27.247Z,14.38
2022-10-14T02:00:54.947Z,14.95
2022-10-14T02:03:22.090Z,15.50
2022-10-14T02:06:07.547Z,14.57
2022-10-14T02:09:00.954Z,15.95
2022-10-14T02:11:37.965Z,14.95
2022-10-14T02:14:23.974Z,15.18
2022-10-14T02:17:06.539Z,15.85
2022-10-14T02:19:44.147Z,15.48
2022-10-14T02:22:11.292Z,16.73
2022-10-14T02:24:54.221Z,16.80
2022-10-14T02:27:25.337Z,15.63
2022-10-14T02:29:57.495Z,16.65
2022-10-14T02:32:26.279Z,16.08
2022-10-14T02:34:57.666Z,15.88
2022-10-14T02:37:26.616Z,16.33
2022-10-14T02:40:08.875Z,15.05
2022-10-14T02:42:36.407Z,16.55
2022-10-14T02:45:06.608Z,16.63
2022-10-14T02:47:33.965Z,15.57
2022-10-14T02:50:01.377Z,15.90
2022-10-14T02:52:30.116Z,15.18
2022-10-14T02:54:58.306Z,15.32
2022-10-14T02:57:25.949Z,16.67
2022-10-14T02:59:53.106Z,15.73
2022-10-14T03:02:20.620Z,16.27
2022-10-14T03:04:48.450Z,15.63
2022-10-14T03:07:15.577Z,15.88
2022-10-14T03:09:46.726Z,16.48
2022-10-14T03:12:13.910Z,16.02
2022-10-14T03:14:41.676Z,16.88
2022-10-14T03:17:12.124Z,16.30
2022-10-14T03:19:40.397Z,17.13
2022-10-14T03:22:08.615Z,16.67
2022-10-14T03:24:37.690Z,16.00
2022-10-14T03:27:21.817Z,15.75
2022-10-14T03:29:53.403Z,15.77
2022-10-14T03:32:24.415Z,16.27
2022-10-14T03:35:14.079Z,15.70
2022-10-14T03:37:44.385Z,17.15
2022-10-14T03:40:12.844Z,17.55
2022-10-14T03:42:42.863Z,16.45
2022-10-14T03:45:10.870Z,17.05
2022-10-14T03:47:40.434Z,17.92
2022-10-14T03:50:08.165Z,17.08
2022-10-14T03:52:47.453Z,17.95
2022-10-14T03:55:26.470Z,16.95
2022-10-14T03:57:54.103Z,17.85
2022-10-14T04:00:21.713Z,18.50
2022-10-14T04:02:58.708Z,18.85
2022-10-14T04:05:39.723Z,19.20
2022-10-14T04:08:17.669Z,18.10
2022-10-14T04:10:56.455Z,19.00
2022-10-14T04:13:25.366Z,19.15
2022-10-14T04:15:53.032Z,17.60
2022-10-14T04:18:35.131Z,18.85
2022-10-14T04:21:08.348Z,18.67
2022-10-14T04:23:36.964Z,18.10
2022-10-14T04:26:12.503Z,20.38
2022-10-14T04:28:40.353Z,20.40
2022-10-14T04:31:13.632Z,20.75
2022-10-14T04:33:55.890Z,20.13
2022-10-14T04:36:30.174Z,20.25
2022-10-14T04:38:59.919Z,19.85
2022-10-14T04:41:27.805Z,19.42
2022-10-14T04:43:57.634Z,18.13
2022-10-14T04:46:33.056Z,16.65
2022-10-14T04:49:01.074Z,18.17
2022-10-14T04:54:10.520Z,18.70
2022-10-14T04:56:57.945Z,19.05
2022-10-14T04:59:25.282Z,19.38
2022-10-14T05:02:12.825Z,19.45
2022-10-14T05:04:50.381Z,19.80
2022-10-14T05:07:18.076Z,18.83
2022-10-14T05:09:54.189Z,15.48
2022-10-14T05:12:34.831Z,19.77
2022-10-14T05:15:05.427Z,19.45
2022-10-14T05:17:45.852Z,20.45
2022-10-14T05:20:16.636Z,20.02
2022-10-14T05:22:47.558Z,20.23
2022-10-14T05:25:14.868Z,19.88
2022-10-14T05:27:42.417Z,20.38
2022-10-14T05:30:10.804Z,21.05
2022-10-14T05:32:44.004Z,19.52
2022-10-14T05:35:11.340Z,19.50
2022-10-14T05:37:41.011Z,20.00
2022-10-14T05:40:09.404Z,21.02
2022-10-14T05:42:37.547Z,19.52
2022-10-14T05:45:06.131Z,20.67
2022-10-14T05:50:13.458Z,22.10
2022-10-14T05:52:44.201Z,23.13
2022-10-14T05:55:17.610Z,22.95
2022-10-14T05:57:46.423Z,22.83
2022-10-14T06:00:23.299Z,23.55
2022-10-14T06:02:59.166Z,22.77
2022-10-14T06:05:27.364Z,22.75
2022-10-14T06:07:54.598Z,21.92
2022-10-14T06:10:22.800Z,21.80
2022-10-14T06:12:50.036Z,20.33
2022-10-14T06:15:17.462Z,21.33
2022-10-14T06:17:44.877Z,21.10
2022-10-14T06:20:12.063Z,20.80
2022-10-14T06:22:39.192Z,20.90
2022-10-14T06:25:06.976Z,20.25
2022-10-14T06:27:34.244Z,22.25
2022-10-14T06:30:01.607Z,20.55
2022-10-14T06:32:29.059Z,19.70
2022-10-14T06:34:56.272Z,18.30
2022-10-14T06:37:23.882Z,17.90
2022-10-14T06:39:51.250Z,16.25
2022-10-14T06:42:18.489Z,16.38
2022-10-14T06:44:45.776Z,17.45
2022-10-14T06:47:13.187Z,16.23
2022-10-14T06:49:40.349Z,16.20
2022-10-14T06:52:07.637Z,15.68
2022-10-14T06:54:38.998Z,16.30
2022-10-14T06:57:06.991Z,15.40
2022-10-14T06:59:34.254Z,16.70
2022-10-14T07:02:01.667Z,15.90
2022-10-14T07:04:28.872Z,16.30
2022-10-14T07:06:57.857Z,14.95
2022-10-14T07:09:25.237Z,16.23
2022-10-14T07:11:52.462Z,16.80
2022-10-14T07:14:19.797Z,15.32
2022-10-14T07:16:47.222Z,15.65
2022-10-14T07:19:14.501Z,15.75
2022-10-14T07:21:42.967Z,14.95
2022-10-14T07:24:10.415Z,16.15
2022-10-14T07:26:37.653Z,16.25
2022-10-14T07:29:05.751Z,16.40
2022-10-14T07:31:33.229Z,15.10
2022-10-14T07:34:01.743Z,15.27
2022-10-14T07:36:28.925Z,16.13
2022-10-14T07:38:56.568Z,15.13
2022-10-14T07:41:25.347Z,16.40
2022-10-14T07:44:01.951Z,16.45
2022-10-14T07:46:32.339Z,17.02
2022-10-14T07:49:13.731Z,16.42
2022-10-14T07:51:42.300Z,16.00
2022-10-14T07:54:14.984Z,17.63
2022-10-14T07:56:43.334Z,16.80
2022-10-14T07:59:10.780Z,16.45
2022-10-14T08:01:38.673Z,16.73
2022-10-14T08:04:06.032Z,16.13
2022-10-14T08:06:33.449Z,17.23
2022-10-14T08:09:00.652Z,16.75
2022-10-14T08:11:29.098Z,18.00
2022-10-14T08:13:58.165Z,17.65
2022-10-14T08:16:27.857Z,16.80
2022-10-14T08:19:00.537Z,16.88
2022-10-14T08:21:28.706Z,18.00
2022-10-14T08:23:56.165Z,16.98
2022-10-14T08:26:35.286Z,18.02
2022-10-14T08:29:06.057Z,16.80
2022-10-14T08:31:34.228Z,18.40
2022-10-14T08:34:01.858Z,16.92
2022-10-14T08:36:29.449Z,17.95
2022-10-14T08:38:56.878Z,16.65
2022-10-14T08:41:46.937Z,17.38
2022-10-14T08:44:17.638Z,19.23
2022-10-14T08:46:54.438Z,19.23
2022-10-14T08:49:29.917Z,19.02
2022-10-14T08:52:04.959Z,17.55
2022-10-14T08:54:37.673Z,17.65
2022-10-14T08:57:12.691Z,18.38
2022-10-14T08:59:41.786Z,18.50
2022-10-14T09:02:42.712Z,19.60
2022-10-14T09:05:22.066Z,20.60
2022-10-14T09:07:52.411Z,21.17
2022-10-14T09:10:36.311Z,19.83
2022-10-14T09:13:18.916Z,20.15
2022-10-14T09:15:50.473Z,20.75
2022-10-14T09:18:27.019Z,20.00
2022-10-14T09:20:56.423Z,20.45
2022-10-14T09:23:27.842Z,20.57
2022-10-14T09:26:04.289Z,19.85
2022-10-14T09:28:44.541Z,18.73
2022-10-14T09:31:14.029Z,18.92
2022-10-14T09:33:43.091Z,18.73
2022-10-14T09:36:17.671Z,20.88
2022-10-14T09:38:48.021Z,20.63
2022-10-14T09:41:16.344Z,19.98
2022-10-14T09:44:23.217Z,20.88
2022-10-14T09:46:55.283Z,18.50
2022-10-14T09:49:42.509Z,19.77
2022-10-14T09:52:22.410Z,20.73
2022-10-14T09:54:55.362Z,20.95
2022-10-14T09:57:24.562Z,20.25
2022-10-14T09:59:57.563Z,20.95
2022-10-14T10:02:33.892Z,18.73
2022-10-14T10:05:23.098Z,19.40
2022-10-14T10:08:02.257Z,20.40
2022-10-14T10:10:31.196Z,18.80
2022-10-14T10:12:58.891Z,20.27
2022-10-14T10:15:26.392Z,19.02
2022-10-14T10:17:53.767Z,20.70
2022-10-14T10:20:33.222Z,19.80
2022-10-14T10:23:19.822Z,20.00
2022-10-14T10:25:48.287Z,19.90
2022-10-14T10:28:27.169Z,20.90
2022-10-14T10:31:19.704Z,20.52
2022-10-14T10:34:02.429Z,22.02
2022-10-14T10:36:42.591Z,20.63
2022-10-14T10:39:12.613Z,21.15
2022-10-14T10:41:53.591Z,23.15
2022-10-14T10:44:52.855Z,26.80
2022-10-14T10:47:31.486Z,24.00
2022-10-14T10:50:40.214Z,23.65
2022-10-14T10:53:19.647Z,22.35
2022-10-14T10:55:59.882Z,24.25
2022-10-14T10:58:40.968Z,25.20
2022-10-14T11:01:33.513Z,24.77
2022-10-14T11:04:19.373Z,22.63
2022-10-14T11:07:27.774Z,22.95
2022-10-14T11:10:29.527Z,24.20
2022-10-14T11:13:35.456Z,23.50
2022-10-14T11:16:07.868Z,23.58
2022-10-14T11:18:47.592Z,24.30
2022-10-14T11:21:15.001Z,24.58
2022-10-14T11:23:57.206Z,24.60
2022-10-14T11:26:46.620Z,23.20
2022-10-14T11:29:23.176Z,24.63
2022-10-14T11:32:12.247Z,22.13
2022-10-14T11:35:02.024Z,23.48
2022-10-14T11:37:46.509Z,22.38
2022-10-14T11:40:13.581Z,22.33
2022-10-14T11:43:02.423Z,23.27
2022-10-14T11:45:41.675Z,23.98
2022-10-14T11:48:30.152Z,23.58
2022-10-14T11:51:26.002Z,23.08
2022-10-14T11:54:04.158Z,24.58
2022-10-14T11:56:46.334Z,24.40
2022-10-14T11:59:19.845Z,23.67
2022-10-14T12:01:52.210Z,24.15
2022-10-14T12:04:28.016Z,24.80
2022-10-14T12:07:06.948Z,23.42
2022-10-14T12:09:44.878Z,23.73
2022-10-14T12:12:15.338Z,24.15
2022-10-14T12:14:50.191Z,26.13
2022-10-14T12:17:43.556Z,24.65
2022-10-14T12:20:30.725Z,25.23
2022-10-14T12:22:59.668Z,23.75
2022-10-14T12:25:30.610Z,21.98
2022-10-14T12:27:58.279Z,22.23
2022-10-14T12:30:33.961Z,24.75
2022-10-14T12:33:05.058Z,24.67
2022-10-14T12:35:46.384Z,25.00
2022-10-14T12:38:18.650Z,24.58
2022-10-14T12:40:48.448Z,24.70
2022-10-14T12:43:20.596Z,23.55
2022-10-14T12:45:59.329Z,24.95
2022-10-14T12:48:30.035Z,23.50
2022-10-14T12:51:16.634Z,23.73
2022-10-14T12:54:05.444Z,21.52
2022-10-14T12:57:01.198Z,22.08
2022-10-14T12:59:36.509Z,24.02
2022-10-14T13:02:26.396Z,22.67
2022-10-14T13:04:55.244Z,22.65
2022-10-14T13:07:39.824Z,22.08
2022-10-14T13:10:27.855Z,21.95
2022-10-14T13:12:55.281Z,24.63
2022-10-14T13:15:57.932Z,22.83
2022-10-14T13:18:28.295Z,23.30
2022-10-14T13:20:55.419Z,20.17
2022-10-14T13:23:37.937Z,23.38
2022-10-14T13:26:28.471Z,23.42
2022-10-14T13:29:20.116Z,21.40
2022-10-14T13:34:51.322Z,23.05
2022-10-14T13:37:32.267Z,21.30
2022-10-14T13:40:27.247Z,16.85
2022-10-14T13:43:02.156Z,16.48
2022-10-14T13:45:37.043Z,16.77
2022-10-14T13:48:14.737Z,16.35
2022-10-14T13:50:42.910Z,15.82
2022-10-14T13:53:22.802Z,15.23
2022-10-14T13:55:54.830Z,13.18
2022-10-14T13:58:24.300Z,14.02
2022-10-14T14:00:58.083Z,13.48
2022-10-14T14:03:36.161Z,14.07
2022-10-14T14:06:14.335Z,13.10
2022-10-14T14:09:08.057Z,12.50
2022-10-14T14:11:37.674Z,12.85
2022-10-14T14:14:17.463Z,13.02
2022-10-14T14:17:07.920Z,12.45
2022-10-14T14:19:37.788Z,12.68
2022-10-14T14:22:18.753Z,12.15
2022-10-14T14:24:48.144Z,12.75
2022-10-14T14:27:21.589Z,11.02
2022-10-14T14:29:51.682Z,11.02
2022-10-14T14:32:23.036Z,12.10
2022-10-14T14:37:54.677Z,12.13
2022-10-14T14:40:21.522Z,11.15
2022-10-14T14:42:52.473Z,11.80
2022-10-14T14:45:25.969Z,11.80
2022-10-14T14:48:04.300Z,10.80
2022-10-14T14:50:36.893Z,12.60
2022-10-14T14:53:10.967Z,12.27
2022-10-14T14:56:02.445Z,13.02
2022-10-14T14:58:43.020Z,14.52
2022-10-14T15:01:24.915Z,14.60
2022-10-14T15:04:12.396Z,14.70
2022-10-14T15:06:39.743Z,14.60
2022-10-14T15:09:24.062Z,12.65
2022-10-14T15:11:58.037Z,13.77
2022-10-14T15:14:40.814Z,14.68
2022-10-14T15:17:27.176Z,15.30
2022-10-14T15:20:20.106Z,14.13
2022-10-14T15:22:49.244Z,15.90
2022-10-14T15:25:21.575Z,13.18
2022-10-14T15:28:02.717Z,16.25
2022-10-14T15:30:40.166Z,15.70
2022-10-14T15:33:22.073Z,15.48
2022-10-14T15:35:59.676Z,17.05
2022-10-14T15:38:27.875Z,16.88
2022-10-14T15:40:55.791Z,20.10
2022-10-14T15:43:25.919Z,20.23
2022-10-14T15:46:16.453Z,19.73
2022-10-14T15:48:52.527Z,20.05
2022-10-14T15:51:23.656Z,20.00
2022-10-14T15:53:52.005Z,18.95
2022-10-14T15:56:21.250Z,19.98
2022-10-14T15:58:49.351Z,20.00
2022-10-14T16:01:20.668Z,21.25
2022-10-14T16:03:55.433Z,19.80
2022-10-14T16:06:24.224Z,22.73
2022-10-14T16:08:51.813Z,21.80
2022-10-14T16:11:25.553Z,21.50
2022-10-14T16:13:53.599Z,24.73
2022-10-14T16:16:44.648Z,22.67
2022-10-14T16:19:12.520Z,22.60
2022-10-14T16:21:40.443Z,22.77
2022-10-14T16:24:14.889Z,22.05
2022-10-14T16:26:42.391Z,20.80
2022-10-14T16:29:11.664Z,21.75
2022-10-14T16:31:39.024Z,23.40
2022-10-14T16:34:06.175Z,23.95
2022-10-14T16:36:33.333Z,20.85
2022-10-14T16:39:06.534Z,21.52
2022-10-14T16:41:33.759Z,24.27
2022-10-14T16:44:00.934Z,24.40
2022-10-14T16:46:46.949Z,23.45
2022-10-14T16:49:14.421Z,26.35
2022-10-14T16:51:43.086Z,24.13
2022-10-14T16:54:11.089Z,24.00
2022-10-14T16:56:53.552Z,25.85
2022-10-14T16:59:22.073Z,27.15
2022-10-14T17:01:49.679Z,24.98
2022-10-14T17:04:20.144Z,25.73
2022-10-14T17:06:52.217Z,24.27
2022-10-14T17:09:19.747Z,25.98
2022-10-14T17:11:47.714Z,25.70
2022-10-14T17:14:18.269Z,23.88
2022-10-14T17:16:47.112Z,24.58
2022-10-14T17:19:15.576Z,24.42
2022-10-14T17:21:42.929Z,26.73
2022-10-14T17:24:10.333Z,27.35
2022-10-14T17:26:37.518Z,25.55
2022-10-14T17:29:04.947Z,24.85
2022-10-14T17:31:32.288Z,25.20
2022-10-14T17:33:59.902Z,26.45
2022-10-14T17:36:29.024Z,27.02
2022-10-14T17:38:57.648Z,25.38
2022-10-14T17:41:26.732Z,26.25
2022-10-14T17:43:56.449Z,27.05
2022-10-14T17:46:25.881Z,27.75
2022-10-14T17:48:56.253Z,26.77
2022-10-14T17:51:25.578Z,28.65
2022-10-14T17:53:58.528Z,28.80
2022-10-14T17:56:30.140Z,27.70
2022-10-14T17:59:00.096Z,31.77
2022-10-14T18:01:37.049Z,30.67
2022-10-14T18:04:11.325Z,30.17
2022-10-14T18:06:39.045Z,27.33
2022-10-14T18:09:09.050Z,29.25
2022-10-14T18:12:12.797Z,33.05
2022-10-14T18:14:30.610Z,31.50
2022-10-14T18:16:59.390Z,30.73
2022-10-14T18:19:27.219Z,30.88
2022-10-14T18:21:54.545Z,30.63
2022-10-14T18:24:21.819Z,32.33
2022-10-14T18:26:53.406Z,31.45
2022-10-14T18:29:20.810Z,31.67
2022-10-14T18:31:50.052Z,30.55
2022-10-14T18:34:17.792Z,30.88
2022-10-14T18:36:45.099Z,31.33
2022-10-14T18:39:12.451Z,32.38
2022-10-14T18:41:40.006Z,29.98
2022-10-14T18:44:07.947Z,30.98
2022-10-14T18:46:37.400Z,30.40
2022-10-14T18:49:07.419Z,31.92
2022-10-14T18:51:37.366Z,30.45
2022-10-14T18:54:11.075Z,31.33
2022-10-14T18:56:38.954Z,31.58
2022-10-14T18:59:12.590Z,31.73
2022-10-14T19:01:40.406Z,31.30
2022-10-14T19:04:09.635Z,32.33
2022-10-14T19:06:37.066Z,32.15
2022-10-14T19:09:05.524Z,31.55
2022-10-14T19:11:34.530Z,34.70
2022-10-14T19:14:03.860Z,33.22
2022-10-14T19:16:33.713Z,34.10
2022-10-14T19:19:20.399Z,33.70
2022-10-14T19:21:54.445Z,34.28
2022-10-14T19:24:22.244Z,33.78
2022-10-14T19:26:50.255Z,33.47
2022-10-14T19:29:17.936Z,31.63
2022-10-14T19:31:45.337Z,33.83
2022-10-14T19:34:15.577Z,32.70
2022-10-14T19:36:44.241Z,32.53
2022-10-14T19:39:14.431Z,32.53
2022-10-14T19:41:46.568Z,31.35
2022-10-14T19:44:15.859Z,32.60
2022-10-14T19:46:45.018Z,30.52
2022-10-14T19:49:14.038Z,32.88
2022-10-14T19:51:42.144Z,33.85
2022-10-14T19:54:12.083Z,34.03
2022-10-14T19:56:39.705Z,33.42
2022-10-14T19:59:07.253Z,33.65
2022-10-14T20:01:34.809Z,34.30
2022-10-14T20:04:02.631Z,33.58
2022-10-14T20:06:35.849Z,32.88
2022-10-14T20:09:04.178Z,34.50
2022-10-14T20:11:31.967Z,35.05
2022-10-14T20:13:59.464Z,35.30
2022-10-14T20:16:27.363Z,37.58
2022-10-14T20:18:56.075Z,38.38
2022-10-14T20:21:23.778Z,38.47
2022-10-14T20:23:51.217Z,37.95
2022-10-14T20:26:21.316Z,37.28
2022-10-14T20:28:49.427Z,37.35
2022-10-14T20:31:20.039Z,40.03
2022-10-14T20:33:47.406Z,41.58
2022-10-14T20:36:17.596Z,43.45
2022-10-14T20:38:45.707Z,44.55
2022-10-14T20:41:15.915Z,41.55
2022-10-14T20:43:44.127Z,43.97
2022-10-14T20:46:11.938Z,42.08
2022-10-14T20:48:39.537Z,43.28
2022-10-14T20:51:08.758Z,42.30
2022-10-14T20:53:36.595Z,42.70
2022-10-14T20:56:07.027Z,43.08
2022-10-14T20:58:34.602Z,41.60
2022-10-14T21:01:09.261Z,43.15
2022-10-14T21:03:36.537Z,39.95
2022-10-14T21:06:05.983Z,39.50
2022-10-14T21:08:33.766Z,40.10
2022-10-14T21:11:02.347Z,40.47
2022-10-14T21:13:30.511Z,40.13
2022-10-14T21:15:57.999Z,41.30
2022-10-14T21:18:25.417Z,40.20
2022-10-14T21:23:25.287Z,36.40
2022-10-14T21:25:57.541Z,37.83
2022-10-14T21:28:24.949Z,37.47
2022-10-14T21:30:52.172Z,38.28
2022-10-14T21:33:19.422Z,37.38
2022-10-14T21:35:46.751Z,40.05
2022-10-14T21:38:13.901Z,38.70
2022-10-14T21:40:41.126Z,36.20
2022-10-14T21:43:08.531Z,35.25
2022-10-14T21:45:35.820Z,35.67
2022-10-14T21:48:03.175Z,35.72
2022-10-14T21:50:30.532Z,33.60
2022-10-14T21:52:58.082Z,34.28
2022-10-14T21:55:25.308Z,33.50
2022-10-14T21:57:52.713Z,33.80
2022-10-14T22:00:20.901Z,31.95
2022-10-14T22:02:52.131Z,33.20
2022-10-14T22:05:20.058Z,33.17
2022-10-14T22:07:48.012Z,31.35
2022-10-14T22:10:33.612Z,31.63
2022-10-14T22:13:01.439Z,32.03
2022-10-14T22:15:28.655Z,33.13
2022-10-14T22:17:55.865Z,31.75
2022-10-14T22:20:23.317Z,32.92
2022-10-14T22:22:50.674Z,32.13
2022-10-14T22:25:17.817Z,31.63
2022-10-14T22:27:45.167Z,31.55
2022-10-14T22:30:12.964Z,30.35
2022-10-14T22:32:40.135Z,29.85
2022-10-14T22:35:08.135Z,29.98
2022-10-14T22:37:35.350Z,30.02
2022-10-14T22:40:02.579Z,32.78
2022-10-14T22:42:30.284Z,30.77
2022-10-14T22:44:57.463Z,32.15
2022-10-14T22:47:25.030Z,30.05
2022-10-14T22:49:52.638Z,30.45
2022-10-14T22:52:19.939Z,32.40
2022-10-14T22:54:48.296Z,31.80
2022-10-14T22:57:15.719Z,32.80
2022-10-14T22:59:42.950Z,31.20
2022-10-14T23:02:10.157Z,30.75
2022-10-14T23:04:37.484Z,31.25
2022-10-14T23:07:06.893Z,30.80
2022-10-14T23:12:02.653Z,30.83
2022-10-14T23:14:31.025Z,31.00
2022-10-14T23:16:58.190Z,29.52
2022-10-14T23:19:25.628Z,30.15
2022-10-14T23:21:52.907Z,29.65
2022-10-14T23:24:20.033Z,31.58
2022-10-14T23:26:47.403Z,31.08
2022-10-14T23:29:14.656Z,29.38
2022-10-14T23:31:41.842Z,32.53
2022-10-14T23:34:13.719Z,32.38
2022-10-14T23:36:41.571Z,28.92
2022-10-14T23:39:09.251Z,31.33
2022-10-14T23:41:36.630Z,29.85
2022-10-14T23:44:03.832Z,31.23
2022-10-14T23:46:30.963Z,31.02
2022-10-14T23:49:07.270Z,31.85
2022-10-14T23:51:42.191Z,30.63
2022-10-14T23:54:09.674Z,31.35
2022-10-14T23:56:36.850Z,32.45
2022-10-14T23:59:04.032Z,34.97
